CTV969 WIDD-WIII
Flight info
| Callsign | CTV969 |
|---|---|
| Flight time | 1h 20m |
| Altitude | 39000 |
| Route | ANITO B470 BUNIK |
| Aircraft | A320/M-SDE3FGHIRWY/LB1 |
Departure
| Time | 2026-05-06 09:59 |
|---|---|
| Airport | Hang Nadim International Airport (WIDD) |
Arrival
| Time | 2026-05-06 11:20 |
|---|---|
| Airport | Soekarno-Hatta International Airport (WIII) |
| Time | Latitude | Longitude | Altitude | Speed | Heading |
|---|---|---|---|---|---|
| 2026-05-06 09:43 | 1.12385 | 104.11717 | 126 ft | 0 kts | 312° |
| 2026-05-06 09:51 | 1.12375 | 104.11728 | 126 ft | 0 kts | 312° |
| 2026-05-06 09:51 | 1.12364 | 104.11740 | 126 ft | 0 kts | 312° |
| 2026-05-06 09:51 | 1.12353 | 104.11752 | 126 ft | 0 kts | 311° |
| 2026-05-06 09:51 | 1.12348 | 104.11768 | 126 ft | 0 kts | 268° |
| 2026-05-06 09:52 | 1.12351 | 104.11780 | 126 ft | 0 kts | 243° |
| 2026-05-06 09:52 | 1.12359 | 104.11790 | 126 ft | 0 kts | 222° |
| 2026-05-06 09:52 | 1.12365 | 104.11795 | 126 ft | 0 kts | 219° |
| 2026-05-06 09:54 | 1.12360 | 104.11791 | 126 ft | 2 kts | 218° |
| 2026-05-06 09:54 | 1.12340 | 104.11776 | 126 ft | 4 kts | 217° |
| 2026-05-06 09:54 | 1.12306 | 104.11748 | 126 ft | 7 kts | 222° |
| 2026-05-06 09:54 | 1.12258 | 104.11706 | 126 ft | 10 kts | 221° |
| 2026-05-06 09:55 | 1.12198 | 104.11653 | 126 ft | 12 kts | 221° |
| 2026-05-06 09:55 | 1.12122 | 104.11594 | 126 ft | 14 kts | 201° |
| 2026-05-06 09:55 | 1.12043 | 104.11604 | 126 ft | 11 kts | 180° |
| 2026-05-06 09:55 | 1.11976 | 104.11554 | 126 ft | 13 kts | 221° |
| 2026-05-06 09:56 | 1.11913 | 104.11499 | 126 ft | 14 kts | 221° |
| 2026-05-06 09:56 | 1.11877 | 104.11468 | 126 ft | 15 kts | 221° |
| 2026-05-06 09:56 | 1.11821 | 104.11419 | 126 ft | 17 kts | 221° |
| 2026-05-06 09:56 | 1.11726 | 104.11334 | 126 ft | 19 kts | 221° |
| 2026-05-06 09:57 | 1.11620 | 104.11241 | 126 ft | 20 kts | 221° |
| 2026-05-06 09:57 | 1.11512 | 104.11168 | 126 ft | 9 kts | 161° |
| 2026-05-06 09:57 | 1.11502 | 104.11176 | 126 ft | 1 kts | 122° |
| 2026-05-06 09:57 | 1.11499 | 104.11200 | 126 ft | 5 kts | 91° |
| 2026-05-06 09:58 | 1.11510 | 104.11248 | 126 ft | 8 kts | 71° |
| 2026-05-06 09:58 | 1.11533 | 104.11316 | 126 ft | 11 kts | 72° |
| 2026-05-06 09:58 | 1.11564 | 104.11401 | 126 ft | 14 kts | 63° |
| 2026-05-06 09:58 | 1.11676 | 104.11510 | 126 ft | 50 kts | 41° |
| 2026-05-06 09:59 | 1.12147 | 104.11925 | 127 ft | 125 kts | 41° |
| 2026-05-06 09:59 | 1.12918 | 104.12602 | 377 ft | 158 kts | 41° |
| 2026-05-06 09:59 | 1.13755 | 104.13322 | 992 ft | 162 kts | 41° |
| 2026-05-06 09:59 | 1.14607 | 104.14050 | 1673 ft | 165 kts | 42° |
| 2026-05-06 10:00 | 1.15468 | 104.14806 | 2347 ft | 169 kts | 42° |
| 2026-05-06 10:00 | 1.16377 | 104.15610 | 2757 ft | 184 kts | 42° |
| 2026-05-06 10:00 | 1.17379 | 104.16496 | 3153 ft | 200 kts | 42° |
| 2026-05-06 10:00 | 1.18487 | 104.17471 | 3577 ft | 220 kts | 42° |
| 2026-05-06 10:01 | 1.19673 | 104.18513 | 4056 ft | 238 kts | 41° |
| 2026-05-06 10:01 | 1.20898 | 104.19695 | 4539 ft | 256 kts | 54° |
| 2026-05-06 10:01 | 1.21576 | 104.21375 | 5046 ft | 273 kts | 83° |
| 2026-05-06 10:01 | 1.21377 | 104.23263 | 5612 ft | 278 kts | 110° |
| 2026-05-06 10:02 | 1.20383 | 104.24940 | 5936 ft | 282 kts | 126° |
| 2026-05-06 10:02 | 1.19175 | 104.26554 | 6479 ft | 292 kts | 126° |
| 2026-05-06 10:02 | 1.17982 | 104.28156 | 7543 ft | 288 kts | 126° |
| 2026-05-06 10:02 | 1.16820 | 104.29748 | 8498 ft | 288 kts | 125° |
| 2026-05-06 10:03 | 1.15643 | 104.31377 | 9389 ft | 291 kts | 124° |
| 2026-05-06 10:03 | 1.14459 | 104.33015 | 10241 ft | 295 kts | 124° |
| 2026-05-06 10:03 | 1.13243 | 104.34703 | 10872 ft | 307 kts | 124° |
| 2026-05-06 10:03 | 1.11965 | 104.36479 | 11438 ft | 320 kts | 124° |
| 2026-05-06 10:04 | 1.10638 | 104.38278 | 12216 ft | 325 kts | 126° |
| 2026-05-06 10:04 | 1.09203 | 104.40024 | 13003 ft | 329 kts | 128° |
| 2026-05-06 10:04 | 1.07713 | 104.41797 | 13738 ft | 332 kts | 128° |
| 2026-05-06 10:04 | 1.06221 | 104.43568 | 14458 ft | 336 kts | 128° |
| 2026-05-06 10:05 | 1.04721 | 104.45348 | 15148 ft | 339 kts | 128° |
| 2026-05-06 10:05 | 1.03141 | 104.47122 | 15798 ft | 344 kts | 135° |
| 2026-05-06 10:05 | 1.01160 | 104.48521 | 16438 ft | 350 kts | 150° |
| 2026-05-06 10:05 | 0.98875 | 104.49387 | 17063 ft | 355 kts | 161° |
| 2026-05-06 10:06 | 0.96463 | 104.50066 | 17669 ft | 359 kts | 162° |
| 2026-05-06 10:06 | 0.94030 | 104.50723 | 18250 ft | 362 kts | 162° |
| 2026-05-06 10:06 | 0.91590 | 104.51388 | 18819 ft | 364 kts | 162° |
| 2026-05-06 10:06 | 0.89127 | 104.52068 | 19372 ft | 367 kts | 162° |
| 2026-05-06 10:07 | 0.86669 | 104.52753 | 19909 ft | 369 kts | 162° |
| 2026-05-06 10:07 | 0.84159 | 104.53456 | 20441 ft | 372 kts | 162° |
| 2026-05-06 10:07 | 0.81643 | 104.54163 | 20941 ft | 374 kts | 162° |
| 2026-05-06 10:07 | 0.79111 | 104.54877 | 21428 ft | 377 kts | 162° |
| 2026-05-06 10:08 | 0.76573 | 104.55591 | 21900 ft | 380 kts | 162° |
| 2026-05-06 10:08 | 0.74006 | 104.56313 | 22366 ft | 382 kts | 162° |
| 2026-05-06 10:08 | 0.71401 | 104.57050 | 22843 ft | 385 kts | 161° |
| 2026-05-06 10:08 | 0.68821 | 104.57806 | 23310 ft | 387 kts | 161° |
| 2026-05-06 10:09 | 0.66218 | 104.58581 | 23777 ft | 390 kts | 161° |
| 2026-05-06 10:09 | 0.63605 | 104.59359 | 24231 ft | 392 kts | 161° |
| 2026-05-06 10:09 | 0.61000 | 104.60135 | 24671 ft | 394 kts | 161° |
| 2026-05-06 10:09 | 0.58342 | 104.60927 | 25109 ft | 397 kts | 161° |
| 2026-05-06 10:10 | 0.55699 | 104.61713 | 25528 ft | 399 kts | 161° |
| 2026-05-06 10:10 | 0.53004 | 104.62516 | 25950 ft | 401 kts | 161° |
| 2026-05-06 10:10 | 0.50331 | 104.63312 | 26357 ft | 404 kts | 161° |
| 2026-05-06 10:10 | 0.47646 | 104.64111 | 26750 ft | 406 kts | 161° |
| 2026-05-06 10:11 | 0.44899 | 104.64925 | 27142 ft | 409 kts | 161° |
| 2026-05-06 10:11 | 0.42162 | 104.65733 | 27536 ft | 411 kts | 161° |
| 2026-05-06 10:11 | 0.39399 | 104.66549 | 27924 ft | 413 kts | 161° |
| 2026-05-06 10:11 | 0.36623 | 104.67370 | 28301 ft | 416 kts | 161° |
| 2026-05-06 10:12 | 0.33857 | 104.68188 | 28675 ft | 418 kts | 161° |
| 2026-05-06 10:12 | 0.31074 | 104.69012 | 29044 ft | 420 kts | 162° |
| 2026-05-06 10:12 | 0.28260 | 104.69848 | 29411 ft | 422 kts | 162° |
| 2026-05-06 10:12 | 0.25421 | 104.70690 | 29769 ft | 425 kts | 162° |
| 2026-05-06 10:13 | 0.22547 | 104.71543 | 30114 ft | 427 kts | 162° |
| 2026-05-06 10:13 | 0.19718 | 104.72382 | 30456 ft | 430 kts | 162° |
| 2026-05-06 10:13 | 0.16827 | 104.73238 | 30793 ft | 432 kts | 162° |
| 2026-05-06 10:13 | 0.13922 | 104.74098 | 31127 ft | 434 kts | 162° |
| 2026-05-06 10:14 | 0.11012 | 104.74959 | 31453 ft | 437 kts | 162° |
| 2026-05-06 10:14 | 0.08090 | 104.75824 | 31778 ft | 439 kts | 162° |
| 2026-05-06 10:14 | 0.05164 | 104.76691 | 32107 ft | 441 kts | 162° |
| 2026-05-06 10:14 | 0.02197 | 104.77572 | 32402 ft | 444 kts | 162° |
| 2026-05-06 10:15 | -0.00770 | 104.78451 | 32724 ft | 446 kts | 162° |
| 2026-05-06 10:15 | -0.03784 | 104.79346 | 33049 ft | 449 kts | 162° |
| 2026-05-06 10:15 | -0.06766 | 104.80231 | 33376 ft | 451 kts | 162° |
| 2026-05-06 10:15 | -0.09795 | 104.81133 | 33733 ft | 452 kts | 162° |
| 2026-05-06 10:16 | -0.12825 | 104.82034 | 34201 ft | 451 kts | 162° |
| 2026-05-06 10:16 | -0.15839 | 104.82931 | 34706 ft | 450 kts | 162° |
| 2026-05-06 10:16 | -0.18802 | 104.83812 | 35191 ft | 448 kts | 162° |
| 2026-05-06 10:16 | -0.21788 | 104.84729 | 35652 ft | 446 kts | 160° |
| 2026-05-06 10:17 | -0.24718 | 104.85784 | 36070 ft | 445 kts | 157° |
| 2026-05-06 10:17 | -0.27562 | 104.86988 | 36447 ft | 444 kts | 154° |
| 2026-05-06 10:17 | -0.30360 | 104.88364 | 36803 ft | 444 kts | 150° |
| 2026-05-06 10:17 | -0.33049 | 104.89879 | 37122 ft | 444 kts | 147° |
| 2026-05-06 10:18 | -0.35650 | 104.91539 | 37381 ft | 444 kts | 144° |
| 2026-05-06 10:18 | -0.38222 | 104.93275 | 37617 ft | 446 kts | 144° |
| 2026-05-06 10:18 | -0.40791 | 104.95019 | 37845 ft | 447 kts | 144° |
| 2026-05-06 10:18 | -0.43348 | 104.96756 | 38066 ft | 449 kts | 144° |
| 2026-05-06 10:19 | -0.45950 | 104.98521 | 38285 ft | 450 kts | 144° |
| 2026-05-06 10:19 | -0.48555 | 105.00287 | 38513 ft | 451 kts | 144° |
| 2026-05-06 10:19 | -0.51135 | 105.02033 | 38733 ft | 451 kts | 144° |
| 2026-05-06 10:19 | -0.53742 | 105.03798 | 38784 ft | 453 kts | 144° |
| 2026-05-06 10:20 | -0.58974 | 105.07340 | 38792 ft | 453 kts | 144° |
| 2026-05-06 10:20 | -0.64498 | 105.10365 | 38795 ft | 456 kts | 158° |
| 2026-05-06 10:21 | -0.70515 | 105.12510 | 38785 ft | 457 kts | 159° |
| 2026-05-06 10:21 | -0.76506 | 105.14613 | 38780 ft | 456 kts | 159° |
| 2026-05-06 10:22 | -0.82476 | 105.16738 | 38789 ft | 455 kts | 159° |
| 2026-05-06 10:22 | -0.88431 | 105.18870 | 38794 ft | 455 kts | 159° |
| 2026-05-06 10:23 | -0.94423 | 105.21021 | 38791 ft | 456 kts | 159° |
| 2026-05-06 10:23 | -1.00381 | 105.23163 | 38793 ft | 456 kts | 159° |
| 2026-05-06 10:24 | -1.06387 | 105.25322 | 38794 ft | 456 kts | 159° |
| 2026-05-06 10:24 | -1.12368 | 105.27474 | 38795 ft | 456 kts | 159° |
| 2026-05-06 10:25 | -1.18346 | 105.29625 | 38792 ft | 456 kts | 159° |
| 2026-05-06 10:25 | -1.24343 | 105.31781 | 38794 ft | 457 kts | 159° |
| 2026-05-06 10:26 | -1.30304 | 105.33925 | 38794 ft | 457 kts | 159° |
| 2026-05-06 10:26 | -1.36302 | 105.36082 | 38786 ft | 457 kts | 159° |
| 2026-05-06 10:27 | -1.42315 | 105.38244 | 38780 ft | 458 kts | 159° |
| 2026-05-06 10:27 | -1.48317 | 105.40404 | 38779 ft | 458 kts | 159° |
| 2026-05-06 10:28 | -1.54308 | 105.42558 | 38784 ft | 458 kts | 159° |
| 2026-05-06 10:28 | -1.60325 | 105.44724 | 38780 ft | 458 kts | 159° |
| 2026-05-06 10:29 | -1.66322 | 105.46882 | 38780 ft | 459 kts | 159° |
| 2026-05-06 10:29 | -1.72357 | 105.49052 | 38780 ft | 459 kts | 159° |
| 2026-05-06 10:30 | -1.78384 | 105.51221 | 38783 ft | 459 kts | 159° |
| 2026-05-06 10:30 | -1.84400 | 105.53387 | 38786 ft | 459 kts | 159° |
| 2026-05-06 10:31 | -1.90435 | 105.55560 | 38798 ft | 460 kts | 159° |
| 2026-05-06 10:31 | -1.96462 | 105.57731 | 38798 ft | 460 kts | 159° |
| 2026-05-06 10:32 | -2.02494 | 105.59903 | 38791 ft | 460 kts | 159° |
| 2026-05-06 10:32 | -2.08515 | 105.62068 | 38795 ft | 460 kts | 159° |
| 2026-05-06 10:33 | -2.14536 | 105.64235 | 38795 ft | 459 kts | 159° |
| 2026-05-06 10:33 | -2.20580 | 105.66412 | 38795 ft | 460 kts | 159° |
| 2026-05-06 10:34 | -2.26606 | 105.68583 | 38796 ft | 460 kts | 159° |
| 2026-05-06 10:34 | -2.32654 | 105.70761 | 38794 ft | 460 kts | 159° |
| 2026-05-06 10:35 | -2.38669 | 105.72928 | 38793 ft | 460 kts | 159° |
| 2026-05-06 10:35 | -2.44721 | 105.75108 | 38797 ft | 459 kts | 159° |
| 2026-05-06 10:36 | -2.50711 | 105.77266 | 38794 ft | 459 kts | 159° |
| 2026-05-06 10:36 | -2.56759 | 105.79445 | 38794 ft | 459 kts | 159° |
| 2026-05-06 10:37 | -2.62779 | 105.81614 | 38796 ft | 459 kts | 159° |
| 2026-05-06 10:37 | -2.68782 | 105.83778 | 38797 ft | 459 kts | 159° |
| 2026-05-06 10:38 | -2.74821 | 105.85954 | 38798 ft | 459 kts | 159° |
| 2026-05-06 10:38 | -2.80826 | 105.88118 | 38798 ft | 458 kts | 159° |
| 2026-05-06 10:39 | -2.86868 | 105.90296 | 38796 ft | 458 kts | 159° |
| 2026-05-06 10:39 | -2.92879 | 105.92464 | 38798 ft | 459 kts | 159° |
| 2026-05-06 10:40 | -2.98891 | 105.94630 | 38795 ft | 459 kts | 159° |
| 2026-05-06 10:40 | -3.04928 | 105.96808 | 38795 ft | 459 kts | 159° |
| 2026-05-06 10:41 | -3.10950 | 105.98981 | 38796 ft | 458 kts | 159° |
| 2026-05-06 10:41 | -3.16935 | 106.01139 | 38806 ft | 458 kts | 159° |
| 2026-05-06 10:42 | -3.22924 | 106.03299 | 38811 ft | 458 kts | 159° |
| 2026-05-06 10:42 | -3.28952 | 106.05473 | 38805 ft | 457 kts | 159° |
| 2026-05-06 10:43 | -3.34943 | 106.07635 | 38800 ft | 457 kts | 159° |
| 2026-05-06 10:44 | -3.43934 | 106.10880 | 38801 ft | 458 kts | 159° |
| 2026-05-06 10:44 | -3.49942 | 106.13048 | 38802 ft | 458 kts | 159° |
| 2026-05-06 10:45 | -3.55938 | 106.15211 | 38803 ft | 458 kts | 159° |
| 2026-05-06 10:45 | -3.61936 | 106.17377 | 38800 ft | 458 kts | 159° |
| 2026-05-06 10:46 | -3.67973 | 106.19557 | 38795 ft | 458 kts | 159° |
| 2026-05-06 10:46 | -3.73960 | 106.21719 | 38794 ft | 458 kts | 159° |
| 2026-05-06 10:47 | -3.79971 | 106.23890 | 38793 ft | 458 kts | 159° |
| 2026-05-06 10:47 | -3.85972 | 106.26059 | 38793 ft | 458 kts | 160° |
| 2026-05-06 10:48 | -3.91996 | 106.28236 | 38793 ft | 458 kts | 160° |
| 2026-05-06 10:48 | -3.97977 | 106.30395 | 38793 ft | 458 kts | 160° |
| 2026-05-06 10:49 | -4.03968 | 106.32559 | 38793 ft | 458 kts | 160° |
| 2026-05-06 10:49 | -4.10008 | 106.34742 | 38793 ft | 458 kts | 159° |
| 2026-05-06 10:50 | -4.15989 | 106.36906 | 38793 ft | 458 kts | 160° |
| 2026-05-06 10:50 | -4.22013 | 106.39085 | 38794 ft | 458 kts | 160° |
| 2026-05-06 10:51 | -4.28008 | 106.41253 | 38797 ft | 458 kts | 160° |
| 2026-05-06 10:51 | -4.34004 | 106.43420 | 38797 ft | 459 kts | 160° |
| 2026-05-06 10:52 | -4.40043 | 106.45605 | 38800 ft | 459 kts | 160° |
| 2026-05-06 10:52 | -4.46043 | 106.47776 | 38806 ft | 459 kts | 160° |
| 2026-05-06 10:53 | -4.52065 | 106.49957 | 38811 ft | 459 kts | 160° |
| 2026-05-06 10:53 | -4.58082 | 106.52135 | 38746 ft | 457 kts | 160° |
| 2026-05-06 10:53 | -4.61074 | 106.53220 | 38163 ft | 456 kts | 160° |
| 2026-05-06 10:54 | -4.64080 | 106.54308 | 37124 ft | 460 kts | 160° |
| 2026-05-06 10:54 | -4.67074 | 106.55389 | 36003 ft | 465 kts | 160° |
| 2026-05-06 10:54 | -4.70137 | 106.56498 | 34957 ft | 467 kts | 159° |
| 2026-05-06 10:54 | -4.73202 | 106.57609 | 34114 ft | 465 kts | 159° |
| 2026-05-06 10:55 | -4.76240 | 106.58712 | 33343 ft | 461 kts | 159° |
| 2026-05-06 10:55 | -4.79233 | 106.59798 | 32779 ft | 453 kts | 159° |
| 2026-05-06 10:55 | -4.82163 | 106.60860 | 32364 ft | 443 kts | 159° |
| 2026-05-06 10:55 | -4.85022 | 106.61906 | 31933 ft | 439 kts | 158° |
| 2026-05-06 10:56 | -4.87839 | 106.63068 | 31459 ft | 435 kts | 155° |
| 2026-05-06 10:56 | -4.90623 | 106.64320 | 30963 ft | 431 kts | 154° |
| 2026-05-06 10:56 | -4.93324 | 106.65552 | 30461 ft | 428 kts | 154° |
| 2026-05-06 10:56 | -4.96045 | 106.66798 | 29920 ft | 424 kts | 154° |
| 2026-05-06 10:57 | -4.98686 | 106.68008 | 29418 ft | 419 kts | 153° |
| 2026-05-06 10:57 | -5.01338 | 106.69223 | 28920 ft | 414 kts | 153° |
| 2026-05-06 10:57 | -5.03940 | 106.70415 | 28441 ft | 410 kts | 153° |
| 2026-05-06 10:57 | -5.06522 | 106.71597 | 27972 ft | 405 kts | 153° |
| 2026-05-06 10:58 | -5.09080 | 106.72768 | 27502 ft | 401 kts | 153° |
| 2026-05-06 10:58 | -5.11611 | 106.73927 | 27032 ft | 397 kts | 153° |
| 2026-05-06 10:58 | -5.14117 | 106.75075 | 26561 ft | 393 kts | 153° |
| 2026-05-06 10:58 | -5.16600 | 106.76211 | 26100 ft | 388 kts | 153° |
| 2026-05-06 10:59 | -5.19069 | 106.77335 | 25633 ft | 385 kts | 153° |
| 2026-05-06 10:59 | -5.21482 | 106.78425 | 25176 ft | 382 kts | 153° |
| 2026-05-06 10:59 | -5.23930 | 106.79533 | 24857 ft | 389 kts | 153° |
| 2026-05-06 10:59 | -5.26408 | 106.80654 | 24810 ft | 392 kts | 153° |
| 2026-05-06 11:00 | -5.28926 | 106.81794 | 24805 ft | 393 kts | 153° |
| 2026-05-06 11:00 | -5.31445 | 106.82935 | 24803 ft | 394 kts | 153° |
| 2026-05-06 11:00 | -5.33966 | 106.83993 | 24788 ft | 396 kts | 161° |
| 2026-05-06 11:00 | -5.36715 | 106.84305 | 24427 ft | 400 kts | 182° |
| 2026-05-06 11:01 | -5.39415 | 106.83567 | 23529 ft | 411 kts | 205° |
| 2026-05-06 11:01 | -5.41734 | 106.81880 | 22650 ft | 418 kts | 220° |
| 2026-05-06 11:01 | -5.43920 | 106.79954 | 21996 ft | 416 kts | 219° |
| 2026-05-06 11:01 | -5.46092 | 106.78091 | 21439 ft | 412 kts | 219° |
| 2026-05-06 11:02 | -5.48302 | 106.76247 | 20898 ft | 408 kts | 218° |
| 2026-05-06 11:02 | -5.50481 | 106.74462 | 20356 ft | 404 kts | 218° |
| 2026-05-06 11:02 | -5.52672 | 106.72687 | 19811 ft | 400 kts | 218° |
| 2026-05-06 11:02 | -5.54811 | 106.70964 | 19282 ft | 397 kts | 218° |
| 2026-05-06 11:03 | -5.56973 | 106.69230 | 18757 ft | 393 kts | 218° |
| 2026-05-06 11:03 | -5.59102 | 106.67526 | 18243 ft | 389 kts | 218° |
| 2026-05-06 11:03 | -5.61196 | 106.65850 | 17730 ft | 385 kts | 218° |
| 2026-05-06 11:03 | -5.63267 | 106.64193 | 17220 ft | 381 kts | 218° |
| 2026-05-06 11:04 | -5.65339 | 106.62534 | 16700 ft | 378 kts | 218° |
| 2026-05-06 11:04 | -5.67383 | 106.60899 | 16186 ft | 375 kts | 217° |
| 2026-05-06 11:04 | -5.69407 | 106.59280 | 15675 ft | 372 kts | 217° |
| 2026-05-06 11:04 | -5.71444 | 106.57649 | 15165 ft | 368 kts | 217° |
| 2026-05-06 11:05 | -5.73440 | 106.56053 | 14667 ft | 365 kts | 217° |
| 2026-05-06 11:05 | -5.75398 | 106.54486 | 14172 ft | 362 kts | 217° |
| 2026-05-06 11:05 | -5.77374 | 106.52904 | 13666 ft | 359 kts | 217° |
| 2026-05-06 11:05 | -5.79322 | 106.51346 | 13164 ft | 356 kts | 217° |
| 2026-05-06 11:06 | -5.81254 | 106.49799 | 12653 ft | 353 kts | 217° |
| 2026-05-06 11:06 | -5.83158 | 106.48277 | 12122 ft | 350 kts | 217° |
| 2026-05-06 11:06 | -5.85052 | 106.46765 | 11644 ft | 346 kts | 217° |
| 2026-05-06 11:06 | -5.86917 | 106.45274 | 11278 ft | 338 kts | 217° |
| 2026-05-06 11:07 | -5.88756 | 106.43802 | 10872 ft | 333 kts | 217° |
| 2026-05-06 11:07 | -5.90557 | 106.42360 | 10469 ft | 327 kts | 217° |
| 2026-05-06 11:07 | -5.92315 | 106.40951 | 10084 ft | 322 kts | 217° |
| 2026-05-06 11:07 | -5.94062 | 106.39552 | 9700 ft | 313 kts | 217° |
| 2026-05-06 11:08 | -5.95714 | 106.38229 | 9115 ft | 303 kts | 217° |
| 2026-05-06 11:08 | -5.97370 | 106.36902 | 8586 ft | 302 kts | 217° |
| 2026-05-06 11:08 | -5.99002 | 106.35595 | 8232 ft | 297 kts | 217° |
| 2026-05-06 11:08 | -6.00596 | 106.34319 | 7966 ft | 290 kts | 217° |
| 2026-05-06 11:09 | -6.02176 | 106.33054 | 7709 ft | 283 kts | 217° |
| 2026-05-06 11:09 | -6.03702 | 106.31860 | 7471 ft | 276 kts | 211° |
| 2026-05-06 11:09 | -6.05473 | 106.31235 | 7214 ft | 263 kts | 179° |
| 2026-05-06 11:09 | -6.07231 | 106.31464 | 7070 ft | 250 kts | 164° |
| 2026-05-06 11:10 | -6.08911 | 106.31890 | 6850 ft | 245 kts | 163° |
| 2026-05-06 11:10 | -6.10570 | 106.32297 | 6520 ft | 246 kts | 164° |
| 2026-05-06 11:10 | -6.12252 | 106.32663 | 6207 ft | 245 kts | 166° |
| 2026-05-06 11:10 | -6.13923 | 106.32990 | 5907 ft | 244 kts | 167° |
| 2026-05-06 11:11 | -6.15610 | 106.33301 | 5607 ft | 243 kts | 167° |
| 2026-05-06 11:11 | -6.17259 | 106.33597 | 5307 ft | 242 kts | 167° |
| 2026-05-06 11:11 | -6.18939 | 106.33895 | 5054 ft | 239 kts | 167° |
| 2026-05-06 11:11 | -6.20483 | 106.34302 | 5001 ft | 222 kts | 147° |
| 2026-05-06 11:12 | -6.21517 | 106.35372 | 5001 ft | 210 kts | 120° |
| 2026-05-06 11:12 | -6.22253 | 106.36646 | 4744 ft | 209 kts | 117° |
| 2026-05-06 11:12 | -6.22959 | 106.37917 | 4457 ft | 209 kts | 118° |
| 2026-05-06 11:12 | -6.23643 | 106.39217 | 4165 ft | 208 kts | 104° |
| 2026-05-06 11:13 | -6.23667 | 106.40609 | 4021 ft | 197 kts | 77° |
| 2026-05-06 11:13 | -6.23261 | 106.41885 | 4014 ft | 188 kts | 69° |
| 2026-05-06 11:13 | -6.22788 | 106.43062 | 4130 ft | 172 kts | 68° |
| 2026-05-06 11:13 | -6.22349 | 106.44119 | 4029 ft | 153 kts | 68° |
| 2026-05-06 11:14 | -6.21961 | 106.45061 | 3861 ft | 142 kts | 68° |
| 2026-05-06 11:14 | -6.21589 | 106.45974 | 3676 ft | 140 kts | 68° |
| 2026-05-06 11:14 | -6.21217 | 106.46897 | 3491 ft | 140 kts | 69° |
| 2026-05-06 11:14 | -6.20854 | 106.47800 | 3311 ft | 139 kts | 69° |
| 2026-05-06 11:15 | -6.20495 | 106.48700 | 3130 ft | 139 kts | 69° |
| 2026-05-06 11:15 | -6.20134 | 106.49608 | 2953 ft | 139 kts | 69° |
| 2026-05-06 11:15 | -6.19776 | 106.50507 | 2781 ft | 138 kts | 69° |
| 2026-05-06 11:15 | -6.19419 | 106.51405 | 2607 ft | 138 kts | 69° |
| 2026-05-06 11:16 | -6.19065 | 106.52294 | 2436 ft | 137 kts | 68° |
| 2026-05-06 11:16 | -6.18711 | 106.53185 | 2261 ft | 137 kts | 68° |
| 2026-05-06 11:16 | -6.18365 | 106.54055 | 2091 ft | 131 kts | 68° |
| 2026-05-06 11:16 | -6.18027 | 106.54902 | 1916 ft | 129 kts | 68° |
| 2026-05-06 11:17 | -6.17695 | 106.55736 | 1758 ft | 128 kts | 68° |
| 2026-05-06 11:17 | -6.17366 | 106.56561 | 1598 ft | 128 kts | 68° |
| 2026-05-06 11:17 | -6.17033 | 106.57399 | 1437 ft | 127 kts | 68° |
| 2026-05-06 11:17 | -6.16706 | 106.58218 | 1278 ft | 127 kts | 68° |
| 2026-05-06 11:18 | -6.16378 | 106.59044 | 1119 ft | 127 kts | 67° |
| 2026-05-06 11:18 | -6.16049 | 106.59869 | 958 ft | 126 kts | 67° |
| 2026-05-06 11:18 | -6.15721 | 106.60693 | 796 ft | 126 kts | 67° |
| 2026-05-06 11:18 | -6.15394 | 106.61511 | 635 ft | 126 kts | 67° |
| 2026-05-06 11:19 | -6.15067 | 106.62334 | 476 ft | 125 kts | 67° |
| 2026-05-06 11:19 | -6.14741 | 106.63151 | 318 ft | 125 kts | 66° |
| 2026-05-06 11:19 | -6.14417 | 106.63959 | 170 ft | 124 kts | 66° |
| 2026-05-06 11:19 | -6.14095 | 106.64762 | 53 ft | 121 kts | 66° |
| 2026-05-06 11:20 | -6.13834 | 106.65399 | 48 ft | 59 kts | 69° |
| 2026-05-06 11:20 | -6.13736 | 106.65653 | 47 ft | 36 kts | 71° |
| 2026-05-06 11:20 | -6.13644 | 106.65893 | 47 ft | 36 kts | 67° |
| 2026-05-06 11:20 | -6.13544 | 106.66124 | 47 ft | 34 kts | 58° |
| 2026-05-06 11:21 | -6.13411 | 106.66273 | 47 ft | 17 kts | 38° |
| 2026-05-06 11:21 | -6.13327 | 106.66298 | 47 ft | 11 kts | 328° |
| 2026-05-06 11:21 | -6.13320 | 106.66225 | 47 ft | 12 kts | 243° |
| 2026-05-06 11:21 | -6.13355 | 106.66139 | 47 ft | 14 kts | 248° |
| 2026-05-06 11:22 | -6.13396 | 106.66037 | 47 ft | 17 kts | 249° |
| 2026-05-06 11:22 | -6.13442 | 106.65917 | 47 ft | 19 kts | 248° |
| 2026-05-06 11:22 | -6.13495 | 106.65784 | 47 ft | 21 kts | 249° |
| 2026-05-06 11:22 | -6.13554 | 106.65638 | 47 ft | 23 kts | 247° |
| 2026-05-06 11:23 | -6.13615 | 106.65482 | 47 ft | 24 kts | 249° |
| 2026-05-06 11:23 | -6.13661 | 106.65348 | 47 ft | 15 kts | 277° |
| 2026-05-06 11:23 | -6.13572 | 106.65289 | 47 ft | 16 kts | 339° |
| 2026-05-06 11:23 | -6.13463 | 106.65249 | 47 ft | 17 kts | 340° |
| 2026-05-06 11:24 | -6.13364 | 106.65206 | 47 ft | 9 kts | 332° |
| 2026-05-06 11:24 | -6.13325 | 106.65183 | 47 ft | 6 kts | 336° |
| 2026-05-06 11:24 | -6.13287 | 106.65189 | 47 ft | 4 kts | 28° |
| 2026-05-06 11:24 | -6.13261 | 106.65202 | 47 ft | 1 kts | 28° |
| 2026-05-06 11:25 | -6.13259 | 106.65204 | 47 ft | 0 kts | 28° |